Time;durP1;ratioP1;P1;durP2;ratioP2;P2;SDS_P1;SDS_P2;PMS_P1;PMS_P2;Temp;Humidity;BMP_temperature;BMP_pressure;BME280_temperature;BME280_humidity;BME280_pressure;Samples;Min_cycle;Max_cycle;Signal;HPM_P1;HPM_P2
2023/01/18 00:04:07;;;;;;;6.43;4.60;;;;;;;;;;10415486;28;20064;-75
2023/01/18 00:09:07;;;;;;;6.80;4.97;;;;;;;;;;10410078;28;20057;-74
2023/01/18 00:14:08;;;;;;;6.75;4.88;;;;;;;;;;10399100;28;20412;-74
2023/01/18 00:19:11;;;;;;;7.78;5.18;;;;;;;;;;10408235;28;20053;-75
2023/01/18 00:24:13;;;;;;;7.70;5.43;;;;;;;;;;10406864;28;20048;-76
2023/01/18 00:29:14;;;;;;;6.57;5.50;;;;;;;;;;10402813;28;20110;-75
2023/01/18 00:34:15;;;;;;;8.88;5.90;;;;;;;;;;10384660;28;20813;-75
2023/01/18 00:39:15;;;;;;;9.03;5.80;;;;;;;;;;10407262;28;20100;-74
2023/01/18 00:44:16;;;;;;;8.82;4.78;;;;;;;;;;10389104;28;20972;-74
2023/01/18 00:49:16;;;;;;;7.30;5.57;;;;;;;;;;10392842;28;20053;-74
2023/01/18 00:54:17;;;;;;;6.93;4.93;;;;;;;;;;10419904;28;20540;-75
2023/01/18 00:59:18;;;;;;;7.32;5.45;;;;;;;;;;10407996;28;20298;-74
2023/01/18 01:09:39;;;;;;;8.25;5.57;;;;;;;;;;10414425;28;20132;-73
2023/01/18 01:30:39;;;;;;;8.15;6.07;;;;;;;;;;10428084;28;20148;-72
2023/01/18 01:35:40;;;;;;;8.07;6.00;;;;;;;;;;10399310;28;20155;-72
2023/01/18 01:40:40;;;;;;;7.88;6.10;;;;;;;;;;10397065;28;20045;-73
2023/01/18 01:45:40;;;;;;;9.95;6.18;;;;;;;;;;10366686;28;20409;-76
2023/01/18 01:50:42;;;;;;;8.57;6.05;;;;;;;;;;10420055;28;20048;-76
2023/01/18 01:55:43;;;;;;;12.75;7.78;;;;;;;;;;10397710;28;20052;-76
2023/01/18 02:00:43;;;;;;;10.00;6.47;;;;;;;;;;10415113;28;20041;-75
2023/01/18 02:05:46;;;;;;;9.43;6.20;;;;;;;;;;10402403;28;20092;-72
2023/01/18 02:10:47;;;;;;;10.27;6.82;;;;;;;;;;10418405;28;20150;-72
2023/01/18 02:16:06;;;;;;;8.52;5.90;;;;;;;;;;10396372;28;20090;-73
2023/01/18 02:21:12;;;;;;;9.73;6.70;;;;;;;;;;10412664;28;20041;-72
2023/01/18 02:26:31;;;;;;;9.52;6.35;;;;;;;;;;10396417;28;20058;-73
2023/01/18 02:31:34;;;;;;;10.95;7.35;;;;;;;;;;10396057;28;20569;-73
2023/01/18 02:36:44;;;;;;;13.67;6.70;;;;;;;;;;10416442;28;20087;-75
2023/01/18 02:47:06;;;;;;;10.13;6.65;;;;;;;;;;10399492;28;20104;-72
2023/01/18 02:52:07;;;;;;;7.60;6.05;;;;;;;;;;10406644;28;20701;-72
2023/01/18 02:57:10;;;;;;;8.05;5.60;;;;;;;;;;10413506;28;20045;-75
2023/01/18 03:02:14;;;;;;;9.20;6.05;;;;;;;;;;10406164;28;20045;-74
2023/01/18 03:07:20;;;;;;;8.48;5.75;;;;;;;;;;10393178;28;20080;-74
2023/01/18 03:12:25;;;;;;;11.15;6.25;;;;;;;;;;10391848;28;20048;-74
2023/01/18 03:17:25;;;;;;;9.73;6.40;;;;;;;;;;10414045;28;20044;-75
2023/01/18 03:38:27;;;;;;;9.90;6.63;;;;;;;;;;10405746;28;20050;-75
2023/01/18 03:43:35;;;;;;;10.57;6.53;;;;;;;;;;10419342;28;20049;-74
2023/01/18 03:48:35;;;;;;;9.48;6.75;;;;;;;;;;10393554;28;20068;-75
2023/01/18 03:53:39;;;;;;;10.27;6.20;;;;;;;;;;10396408;28;20049;-75
2023/01/18 03:58:41;;;;;;;9.70;7.57;;;;;;;;;;10428745;28;20052;-75
2023/01/18 04:03:41;;;;;;;7.97;5.78;;;;;;;;;;10390966;28;20048;-74
2023/01/18 04:08:41;;;;;;;9.73;5.38;;;;;;;;;;10411595;28;20905;-75
2023/01/18 04:13:42;;;;;;;11.02;6.75;;;;;;;;;;10403484;28;20052;-74
2023/01/18 04:18:42;;;;;;;12.05;6.40;;;;;;;;;;10405175;28;20041;-74
2023/01/18 04:23:42;;;;;;;8.02;6.13;;;;;;;;;;10414957;28;20135;-72
2023/01/18 04:28:43;;;;;;;10.10;5.77;;;;;;;;;;10399699;28;20053;-73
2023/01/18 04:33:43;;;;;;;7.72;5.95;;;;;;;;;;10390040;28;20799;-75
2023/01/18 04:38:43;;;;;;;9.03;5.60;;;;;;;;;;10391615;28;20069;-74
2023/01/18 04:43:44;;;;;;;8.32;5.80;;;;;;;;;;10386428;28;20299;-75
2023/01/18 04:48:48;;;;;;;12.05;6.40;;;;;;;;;;10406726;28;20045;-73
2023/01/18 04:53:50;;;;;;;9.52;6.07;;;;;;;;;;10409179;28;20042;-73
2023/01/18 04:58:53;;;;;;;7.95;5.97;;;;;;;;;;10381099;28;20481;-76
2023/01/18 05:03:55;;;;;;;10.05;6.13;;;;;;;;;;10395268;28;20050;-73
2023/01/18 05:08:55;;;;;;;9.73;5.93;;;;;;;;;;10393164;28;20459;-77
2023/01/18 05:13:56;;;;;;;11.43;6.93;;;;;;;;;;10413911;28;20033;-75
2023/01/18 05:18:56;;;;;;;8.73;5.95;;;;;;;;;;10394688;28;20387;-74
2023/01/18 05:23:57;;;;;;;9.25;6.22;;;;;;;;;;10393064;28;20048;-75
2023/01/18 05:28:58;;;;;;;9.27;5.05;;;;;;;;;;10398401;28;20423;-74
2023/01/18 05:33:58;;;;;;;9.60;6.00;;;;;;;;;;10404951;28;20053;-74
2023/01/18 05:39:00;;;;;;;13.02;6.95;;;;;;;;;;10404739;28;20504;-73
2023/01/18 05:44:01;;;;;;;9.48;6.20;;;;;;;;;;10416281;28;20393;-74
2023/01/18 05:49:02;;;;;;;8.43;6.22;;;;;;;;;;10404309;28;20056;-74
2023/01/18 05:54:03;;;;;;;8.40;6.30;;;;;;;;;;10415002;28;20037;-73
2023/01/18 05:59:04;;;;;;;8.35;6.60;;;;;;;;;;10417949;28;20053;-74
2023/01/18 06:04:06;;;;;;;10.52;7.90;;;;;;;;;;10408176;28;20056;-74
2023/01/18 06:09:07;;;;;;;11.50;7.28;;;;;;;;;;10410845;28;20056;-73
2023/01/18 06:14:11;;;;;;;11.15;7.22;;;;;;;;;;10426598;28;20049;-76
2023/01/18 06:19:11;;;;;;;10.43;7.80;;;;;;;;;;10391235;28;20053;-76
2023/01/18 06:24:12;;;;;;;12.98;8.68;;;;;;;;;;10399233;28;20052;-76
2023/01/18 06:29:13;;;;;;;12.55;7.80;;;;;;;;;;10405656;28;20053;-75
2023/01/18 06:34:13;;;;;;;15.65;8.63;;;;;;;;;;10408728;28;20570;-78
2023/01/18 06:39:13;;;;;;;15.00;9.50;;;;;;;;;;10410517;28;20041;-76
2023/01/18 06:44:14;;;;;;;18.83;10.43;;;;;;;;;;10416404;28;20378;-73
2023/01/18 06:49:15;;;;;;;13.15;8.85;;;;;;;;;;10406283;28;20084;-76
2023/01/18 06:54:16;;;;;;;16.67;9.27;;;;;;;;;;10396834;28;20483;-74
2023/01/18 06:59:17;;;;;;;14.70;9.02;;;;;;;;;;10415751;28;20049;-73
2023/01/18 07:04:17;;;;;;;20.42;11.23;;;;;;;;;;10411514;28;20053;-72
2023/01/18 07:09:17;;;;;;;14.55;9.52;;;;;;;;;;10408327;28;20823;-74
2023/01/18 07:14:18;;;;;;;17.73;10.95;;;;;;;;;;10383151;28;20144;-73
2023/01/18 07:19:19;;;;;;;15.90;10.82;;;;;;;;;;10410193;28;20087;-72
2023/01/18 07:24:20;;;;;;;17.35;11.10;;;;;;;;;;10370299;28;20546;-74
2023/01/18 07:29:20;;;;;;;24.83;12.05;;;;;;;;;;10408728;28;20439;-74
2023/01/18 07:34:21;;;;;;;18.15;11.45;;;;;;;;;;10396252;28;20107;-75
2023/01/18 07:39:22;;;;;;;20.38;12.00;;;;;;;;;;10408891;28;20132;-76
2023/01/18 07:44:22;;;;;;;19.90;11.23;;;;;;;;;;10407923;28;20416;-75
2023/01/18 07:49:24;;;;;;;22.65;11.45;;;;;;;;;;10404244;28;20668;-74
2023/01/18 07:54:25;;;;;;;19.83;11.80;;;;;;;;;;10404506;28;20049;-75
2023/01/18 07:59:26;;;;;;;22.00;12.70;;;;;;;;;;10408937;28;20053;-75
2023/01/18 08:04:27;;;;;;;20.95;12.02;;;;;;;;;;10415624;28;20091;-74
2023/01/18 08:09:27;;;;;;;23.98;11.77;;;;;;;;;;10414031;28;20554;-75
2023/01/18 08:14:27;;;;;;;19.98;12.02;;;;;;;;;;10395369;28;20103;-75
2023/01/18 08:19:28;;;;;;;22.15;12.15;;;;;;;;;;10388048;28;20061;-75
2023/01/18 08:24:29;;;;;;;22.75;11.82;;;;;;;;;;10385122;28;20124;-76
2023/01/18 08:29:29;;;;;;;20.85;11.70;;;;;;;;;;10385515;28;20060;-74
2023/01/18 08:34:29;;;;;;;21.70;12.27;;;;;;;;;;10396903;28;20049;-73
2023/01/18 08:39:30;;;;;;;17.75;10.88;;;;;;;;;;10425889;28;20049;-75
2023/01/18 08:44:32;;;;;;;20.95;11.73;;;;;;;;;;10424695;28;20084;-75
2023/01/18 08:49:32;;;;;;;18.70;10.88;;;;;;;;;;10423762;28;20179;-74
2023/01/18 08:54:33;;;;;;;20.83;11.95;;;;;;;;;;10422242;28;20049;-74
2023/01/18 08:59:33;;;;;;;19.63;11.52;;;;;;;;;;10410847;28;20440;-74
2023/01/18 09:04:34;;;;;;;18.58;11.10;;;;;;;;;;10410142;28;20054;-74
2023/01/18 09:09:34;;;;;;;20.85;11.93;;;;;;;;;;10420871;28;20075;-75
2023/01/18 09:14:35;;;;;;;17.58;11.30;;;;;;;;;;10416413;28;20229;-75
2023/01/18 09:19:35;;;;;;;31.90;18.42;;;;;;;;;;10396487;28;20053;-76
2023/01/18 09:24:36;;;;;;;16.30;10.27;;;;;;;;;;10380535;28;20503;-76
2023/01/18 09:29:36;;;;;;;14.65;10.43;;;;;;;;;;10413748;28;20049;-74
2023/01/18 09:34:37;;;;;;;15.82;11.00;;;;;;;;;;10419981;28;20063;-75
2023/01/18 09:39:37;;;;;;;15.10;10.98;;;;;;;;;;10416698;28;20052;-76
2023/01/18 09:44:39;;;;;;;13.23;9.48;;;;;;;;;;10391556;28;20041;-75
2023/01/18 09:49:42;;;;;;;12.93;8.57;;;;;;;;;;10384512;28;20060;-76
2023/01/18 09:54:43;;;;;;;;;;;;;;;;;;10400200;28;20071;-75
2023/01/18 10:00:00;;;;;;;12.48;9.10;;;;;;;;;;10380842;28;20408;-74
2023/01/18 10:05:04;;;;;;;13.43;9.50;;;;;;;;;;10406568;28;20038;-75
2023/01/18 10:10:04;;;;;;;15.20;9.98;;;;;;;;;;10394248;28;20053;-76
2023/01/18 10:15:06;;;;;;;15.95;10.68;;;;;;;;;;10407972;28;20067;-76
2023/01/18 10:20:25;;;;;;;14.00;9.70;;;;;;;;;;10415029;28;20567;-78
2023/01/18 10:25:44;;;;;;;15.57;9.52;;;;;;;;;;10390273;28;20470;-73
2023/01/18 10:31:07;;;;;;;16.88;10.48;;;;;;;;;;10397218;28;20057;-78
2023/01/18 10:36:10;;;;;;;17.17;11.13;;;;;;;;;;10427398;28;20106;-76
2023/01/18 10:41:24;;;;;;;15.20;10.52;;;;;;;;;;10441934;28;20045;-78
2023/01/18 10:46:25;;;;;;;14.75;9.75;;;;;;;;;;10442569;28;20571;-75
2023/01/18 10:51:28;;;;;;;14.90;10.30;;;;;;;;;;10448993;28;20095;-76
2023/01/18 10:56:28;;;;;;;;;;;;;;;;;;10434062;28;20060;-77
2023/01/18 11:01:32;;;;;;;11.63;8.57;;;;;;;;;;10468682;28;20346;-73
2023/01/18 11:06:47;;;;;;;9.00;7.03;;;;;;;;;;10482816;28;20040;-76
2023/01/18 11:17:10;;;;;;;7.57;5.85;;;;;;;;;;10440116;28;20083;-73
2023/01/18 11:22:17;;;;;;;9.23;6.22;;;;;;;;;;10470786;28;20436;-75
2023/01/18 11:27:22;;;;;;;10.88;7.05;;;;;;;;;;10468434;28;20139;-75
2023/01/18 11:32:24;;;;;;;9.45;6.18;;;;;;;;;;10450015;28;20466;-76
2023/01/18 11:37:34;;;;;;;7.22;5.22;;;;;;;;;;10433973;28;20132;-77
2023/01/18 11:42:36;;;;;;;7.82;6.28;;;;;;;;;;10449365;28;20080;-78
2023/01/18 11:47:42;;;;;;;8.98;5.68;;;;;;;;;;10445032;28;20478;-76
2023/01/18 11:52:50;;;;;;;9.85;6.85;;;;;;;;;;10447612;28;20041;-76
2023/01/18 11:57:52;;;;;;;7.68;6.05;;;;;;;;;;10448244;28;20522;-75
2023/01/18 12:02:55;;;;;;;8.00;6.07;;;;;;;;;;10446366;28;20085;-75
2023/01/18 12:07:58;;;;;;;8.77;5.75;;;;;;;;;;10428592;28;20084;-74
2023/01/18 12:13:01;;;;;;;8.15;6.22;;;;;;;;;;10432759;28;20119;-74
2023/01/18 12:18:05;;;;;;;;;;;;;;;;;;10440911;28;20082;-73
2023/01/18 12:23:12;;;;;;;9.93;7.32;;;;;;;;;;10444677;28;19924;-76
2023/01/18 12:28:31;;;;;;;9.00;7.53;;;;;;;;;;10446382;28;20064;-73
2023/01/18 12:33:51;;;;;;;9.50;7.25;;;;;;;;;;10423037;28;20231;-73
2023/01/18 12:38:53;;;;;;;11.43;8.38;;;;;;;;;;10440664;28;20054;-75
2023/01/18 12:43:56;;;;;;;14.83;9.37;;;;;;;;;;10441285;28;20442;-74
2023/01/18 12:49:00;;;;;;;17.02;10.15;;;;;;;;;;10437689;28;20045;-73
2023/01/18 12:54:04;;;;;;;14.75;9.43;;;;;;;;;;10429045;28;20049;-75
2023/01/18 12:59:06;;;;;;;14.45;10.00;;;;;;;;;;10426177;28;20517;-73
2023/01/18 13:04:12;;;;;;;29.00;16.45;;;;;;;;;;10442836;28;20064;-73
2023/01/18 13:09:20;;;;;;;16.88;10.10;;;;;;;;;;10458035;28;20053;-75
2023/01/18 13:14:27;;;;;;;14.63;9.73;;;;;;;;;;10432004;23;20052;-77
2023/01/18 13:19:32;;;;;;;13.18;9.38;;;;;;;;;;10438294;28;20485;-76
2023/01/18 13:24:52;;;;;;;13.82;9.40;;;;;;;;;;10421337;28;20107;-74
2023/01/18 13:30:05;;;;;;;13.48;9.65;;;;;;;;;;10447420;28;20472;-76
2023/01/18 13:35:41;;;;;;;13.98;9.23;;;;;;;;;;10430010;28;20049;-75
2023/01/18 13:40:51;;;;;;;12.70;8.25;;;;;;;;;;10397300;28;20057;-76
2023/01/18 13:46:01;;;;;;;16.52;8.07;;;;;;;;;;10402121;28;20045;-78
2023/01/18 13:51:01;;;;;;;14.77;9.23;;;;;;;;;;10436772;28;20798;-76
2023/01/18 13:56:03;;;;;;;14.02;8.02;;;;;;;;;;10435062;28;20057;-75
2023/01/18 14:01:05;;;;;;;12.30;8.15;;;;;;;;;;10446574;28;20048;-78
2023/01/18 14:06:09;;;;;;;11.50;7.47;;;;;;;;;;10445196;28;20454;-75
2023/01/18 14:11:19;;;;;;;14.27;8.10;;;;;;;;;;10394188;28;20405;-76
2023/01/18 14:16:21;;;;;;;12.98;7.05;;;;;;;;;;10368401;28;20126;-74
2023/01/18 14:21:41;;;;;;;12.05;6.93;;;;;;;;;;10396561;28;20569;-79
2023/01/18 14:26:42;;;;;;;10.20;7.13;;;;;;;;;;10393920;28;20056;-77
2023/01/18 14:31:45;;;;;;;9.88;6.88;;;;;;;;;;10396173;28;20060;-77
2023/01/18 14:36:46;;;;;;;11.77;7.45;;;;;;;;;;10416110;28;21361;-77
2023/01/18 14:41:48;;;;;;;11.07;7.18;;;;;;;;;;10410374;28;20057;-75
2023/01/18 14:46:49;;;;;;;13.23;7.97;;;;;;;;;;10390729;28;20096;-75
2023/01/18 14:51:51;;;;;;;12.30;7.75;;;;;;;;;;10406577;28;20053;-75
2023/01/18 14:57:01;;;;;;;12.13;6.45;;;;;;;;;;10391656;28;20132;-74
2023/01/18 15:02:16;;;;;;;13.70;6.85;;;;;;;;;;10394819;28;20041;-75
2023/01/18 15:07:22;;;;;;;14.60;8.30;;;;;;;;;;10385042;28;20351;-76
2023/01/18 15:12:28;;;;;;;11.27;7.18;;;;;;;;;;10377453;28;20057;-77
2023/01/18 15:17:29;;;;;;;10.35;7.07;;;;;;;;;;10400940;28;20046;-75
2023/01/18 15:22:31;;;;;;;9.35;6.95;;;;;;;;;;10394510;28;20049;-75
2023/01/18 15:27:31;;;;;;;10.48;6.10;;;;;;;;;;10384575;28;20123;-75
2023/01/18 15:32:32;;;;;;;10.73;6.32;;;;;;;;;;10385089;28;21492;-75
2023/01/18 15:37:35;;;;;;;12.82;8.18;;;;;;;;;;10351776;28;20046;-74
2023/01/18 15:42:38;;;;;;;13.27;7.65;;;;;;;;;;10402572;28;20584;-75
2023/01/18 15:47:38;;;;;;;11.77;7.57;;;;;;;;;;10393654;28;20510;-75
2023/01/18 15:52:46;;;;;;;13.13;7.32;;;;;;;;;;10404200;28;20125;-75
2023/01/18 15:57:54;;;;;;;10.10;6.72;;;;;;;;;;10379997;28;20132;-77
2023/01/18 16:02:54;;;;;;;13.20;7.78;;;;;;;;;;10393673;28;20073;-73
2023/01/18 16:08:31;;;;;;;10.95;7.47;;;;;;;;;;10401156;28;20066;-72
2023/01/18 16:13:32;;;;;;;12.48;7.53;;;;;;;;;;10288979;28;20097;-72
2023/01/18 16:18:33;;;;;;;9.80;6.30;;;;;;;;;;10396785;28;20038;-74
2023/01/18 16:23:33;;;;;;;13.25;7.38;;;;;;;;;;10403442;28;20044;-74
2023/01/18 16:28:34;;;;;;;8.45;6.53;;;;;;;;;;10406386;28;20482;-74
2023/01/18 16:33:35;;;;;;;10.35;7.35;;;;;;;;;;10380495;28;20041;-75
2023/01/18 16:38:37;;;;;;;11.60;6.80;;;;;;;;;;10375234;28;20416;-75
2023/01/18 16:43:40;;;;;;;12.77;6.22;;;;;;;;;;10402081;28;20045;-71
2023/01/18 16:48:40;;;;;;;12.48;6.85;;;;;;;;;;10398586;28;20264;-74
2023/01/18 16:53:41;;;;;;;10.95;6.25;;;;;;;;;;10365017;28;20041;-75
2023/01/18 16:58:42;;;;;;;12.98;7.32;;;;;;;;;;10380180;28;20541;-73
2023/01/18 17:03:43;;;;;;;14.98;6.40;;;;;;;;;;10355421;28;20052;-72
2023/01/18 17:08:44;;;;;;;9.63;5.90;;;;;;;;;;10379215;28;20068;-72
2023/01/18 17:13:46;;;;;;;11.23;6.60;;;;;;;;;;10410082;28;20397;-73
2023/01/18 17:18:47;;;;;;;13.52;6.93;;;;;;;;;;10408119;28;20067;-73
2023/01/18 17:23:47;;;;;;;13.63;7.72;;;;;;;;;;10402004;28;20045;-74
2023/01/18 17:28:48;;;;;;;11.60;6.93;;;;;;;;;;10375095;28;20054;-72
2023/01/18 17:33:48;;;;;;;17.77;10.90;;;;;;;;;;10357614;28;20037;-72
2023/01/18 17:38:49;;;;;;;13.43;7.20;;;;;;;;;;10418324;28;20120;-71
2023/01/18 17:43:52;;;;;;;11.55;7.15;;;;;;;;;;10377326;28;20173;-73
2023/01/18 17:48:52;;;;;;;10.35;6.00;;;;;;;;;;10400729;28;20053;-74
2023/01/18 17:53:53;;;;;;;9.65;5.93;;;;;;;;;;10390728;28;20044;-76
2023/01/18 17:58:53;;;;;;;13.73;6.93;;;;;;;;;;10392971;28;20034;-74
2023/01/18 18:03:54;;;;;;;11.02;6.55;;;;;;;;;;10410362;28;20474;-74
2023/01/18 18:08:55;;;;;;;8.45;5.97;;;;;;;;;;10381655;28;20099;-73
2023/01/18 18:13:57;;;;;;;9.48;6.20;;;;;;;;;;10399046;28;20053;-73
2023/01/18 18:18:58;;;;;;;13.65;6.68;;;;;;;;;;10406051;28;20440;-75
2023/01/18 18:23:59;;;;;;;11.25;6.40;;;;;;;;;;10412101;28;20049;-74
2023/01/18 18:29:00;;;;;;;9.52;6.32;;;;;;;;;;10399506;28;20058;-73
2023/01/18 18:34:00;;;;;;;15.77;8.25;;;;;;;;;;10413204;28;20041;-73
2023/01/18 18:39:01;;;;;;;14.03;7.47;;;;;;;;;;10392941;28;20128;-74
2023/01/18 18:44:02;;;;;;;14.93;7.30;;;;;;;;;;10405138;28;20319;-73
2023/01/18 18:49:05;;;;;;;13.27;6.68;;;;;;;;;;10372032;28;20064;-76
2023/01/18 18:54:06;;;;;;;12.52;5.95;;;;;;;;;;10377239;28;20049;-74
2023/01/18 18:59:06;;;;;;;11.55;7.22;;;;;;;;;;10405214;28;20045;-74
2023/01/18 19:04:09;;;;;;;10.93;6.93;;;;;;;;;;10415043;28;20839;-73
2023/01/18 19:09:09;;;;;;;13.23;7.88;;;;;;;;;;10407243;28;20498;-77
2023/01/18 19:14:10;;;;;;;14.25;8.55;;;;;;;;;;10402262;28;20129;-73
2023/01/18 19:19:10;;;;;;;11.90;7.72;;;;;;;;;;10417079;28;20057;-75
2023/01/18 19:24:12;;;;;;;12.30;7.93;;;;;;;;;;10405843;28;20049;-74
2023/01/18 19:29:12;;;;;;;19.20;9.18;;;;;;;;;;10402927;28;20289;-74
2023/01/18 19:34:14;;;;;;;14.25;9.05;;;;;;;;;;10408380;28;20065;-74
2023/01/18 19:39:16;;;;;;;17.50;9.25;;;;;;;;;;10413636;28;20076;-73
2023/01/18 19:44:16;;;;;;;14.40;8.90;;;;;;;;;;10398510;28;20046;-74
2023/01/18 19:49:18;;;;;;;12.95;7.97;;;;;;;;;;10413400;28;20040;-76
2023/01/18 19:54:19;;;;;;;19.38;9.55;;;;;;;;;;10404965;28;20504;-76
2023/01/18 19:59:19;;;;;;;12.90;7.85;;;;;;;;;;10439374;28;20050;-74
2023/01/18 20:04:20;;;;;;;12.27;8.75;;;;;;;;;;10409119;28;20045;-75
2023/01/18 20:09:21;;;;;;;14.77;8.30;;;;;;;;;;10417299;28;20055;-76
2023/01/18 20:14:22;;;;;;;13.10;8.05;;;;;;;;;;10405183;28;20056;-77
2023/01/18 20:19:22;;;;;;;12.88;8.48;;;;;;;;;;10405801;28;20153;-78
2023/01/18 20:24:22;;;;;;;14.35;7.75;;;;;;;;;;10408631;28;20696;-77
2023/01/18 20:29:23;;;;;;;15.73;8.43;;;;;;;;;;10425028;28;20060;-77
2023/01/18 20:34:23;;;;;;;14.90;8.13;;;;;;;;;;10397866;28;20118;-76
2023/01/18 20:39:24;;;;;;;14.02;9.02;;;;;;;;;;10406807;28;20064;-78
2023/01/18 20:44:24;;;;;;;17.05;9.25;;;;;;;;;;10391510;28;20038;-75
2023/01/18 20:49:25;;;;;;;15.70;8.95;;;;;;;;;;10410435;28;20057;-75
2023/01/18 20:54:25;;;;;;;18.30;9.82;;;;;;;;;;10414592;28;20077;-75
2023/01/18 20:59:26;;;;;;;16.45;9.70;;;;;;;;;;10396257;28;20044;-76
2023/01/18 21:04:26;;;;;;;15.65;9.10;;;;;;;;;;10404862;28;20801;-77
2023/01/18 21:09:26;;;;;;;19.17;10.10;;;;;;;;;;10390141;28;20080;-74
2023/01/18 21:14:27;;;;;;;19.30;9.95;;;;;;;;;;10400277;28;20087;-75
2023/01/18 21:19:28;;;;;;;18.73;10.98;;;;;;;;;;10390607;28;20048;-78
2023/01/18 21:24:28;;;;;;;21.90;10.95;;;;;;;;;;10402972;28;20447;-74
2023/01/18 21:29:28;;;;;;;17.58;9.90;;;;;;;;;;10400561;28;20473;-74
2023/01/18 21:34:29;;;;;;;18.52;10.60;;;;;;;;;;10406745;28;20068;-73
2023/01/18 21:39:29;;;;;;;19.20;9.95;;;;;;;;;;10412540;28;20038;-76
2023/01/18 21:55:09;;;;;;;24.25;11.05;;;;;;;;;;10417662;28;20055;-77
2023/01/18 22:00:10;;;;;;;19.67;10.40;;;;;;;;;;10418531;28;20531;-75
2023/01/18 22:05:11;;;;;;;20.48;10.57;;;;;;;;;;10406474;28;20053;-80
2023/01/18 22:10:11;;;;;;;22.90;11.50;;;;;;;;;;10407319;28;20045;-76
2023/01/18 22:15:11;;;;;;;21.05;11.30;;;;;;;;;;10403139;28;20137;-77
2023/01/18 22:20:12;;;;;;;19.77;11.20;;;;;;;;;;10416974;28;20494;-78
2023/01/18 22:25:13;;;;;;;21.38;10.80;;;;;;;;;;10415331;28;20084;-76
2023/01/18 22:30:16;;;;;;;18.42;11.38;;;;;;;;;;10410627;28;20468;-78
2023/01/18 22:35:17;;;;;;;18.17;11.07;;;;;;;;;;10395851;28;20060;-77
2023/01/18 22:40:17;;;;;;;22.65;11.43;;;;;;;;;;10414276;28;20498;-78
2023/01/18 22:45:19;;;;;;;23.95;11.93;;;;;;;;;;10409366;28;20053;-77
2023/01/18 22:50:20;;;;;;;17.52;11.48;;;;;;;;;;10414632;28;20057;-75
2023/01/18 22:55:22;;;;;;;20.88;12.30;;;;;;;;;;10410833;28;20099;-75
2023/01/18 23:00:23;;;;;;;21.87;11.97;;;;;;;;;;10400055;28;20413;-76
2023/01/18 23:05:25;;;;;;;24.67;13.82;;;;;;;;;;10417760;28;20323;-77
2023/01/18 23:10:25;;;;;;;21.25;12.07;;;;;;;;;;10404289;28;20049;-75
2023/01/18 23:20:45;;;;;;;22.30;12.88;;;;;;;;;;10415830;28;20055;-74
2023/01/18 23:25:45;;;;;;;30.52;15.60;;;;;;;;;;10414952;28;20042;-75
2023/01/18 23:30:47;;;;;;;29.38;15.48;;;;;;;;;;10435117;28;20056;-76
2023/01/18 23:35:50;;;;;;;23.33;12.35;;;;;;;;;;10420813;28;20049;-78
2023/01/18 23:56:50;;;;;;;21.77;12.63;;;;;;;;;;10396561;28;20049;-77
